sensor_id;sensor_type;location;lat;lon;timestamp;pressure;altitude;pressure_sealevel;temperature;humidity
24230;BME280;12362;50.004;8.006;2023-03-04T00:01:59;101430.38;;;-0.46;100.00
24230;BME280;12362;50.004;8.006;2023-03-04T00:04:24;101440.31;;;-0.67;100.00
24230;BME280;12362;50.004;8.006;2023-03-04T00:06:50;101427.56;;;-0.67;100.00
24230;BME280;12362;50.004;8.006;2023-03-04T00:09:15;101439.56;;;-0.60;100.00
24230;BME280;12362;50.004;8.006;2023-03-04T00:11:41;101447.69;;;-0.87;100.00
24230;BME280;12362;50.004;8.006;2023-03-04T00:14:07;101446.81;;;-0.89;100.00
24230;BME280;12362;50.004;8.006;2023-03-04T00:16:32;101447.69;;;-0.87;100.00
24230;BME280;12362;50.004;8.006;2023-03-04T00:18:58;101441.88;;;-0.78;100.00
24230;BME280;12362;50.004;8.006;2023-03-04T00:21:24;101442.88;;;-0.66;100.00
24230;BME280;12362;50.004;8.006;2023-03-04T00:23:50;101439.53;;;-0.62;100.00
24230;BME280;12362;50.004;8.006;2023-03-04T00:26:16;101443.72;;;-0.67;100.00
24230;BME280;12362;50.004;8.006;2023-03-04T00:28:42;101450.53;;;-0.66;100.00
24230;BME280;12362;50.004;8.006;2023-03-04T00:31:09;101445.69;;;-1.08;100.00
24230;BME280;12362;50.004;8.006;2023-03-04T00:33:35;101448.38;;;-0.98;100.00
24230;BME280;12362;50.004;8.006;2023-03-04T00:36:01;101453.81;;;-0.74;100.00
24230;BME280;12362;50.004;8.006;2023-03-04T00:38:27;101442.25;;;-0.47;100.00
24230;BME280;12362;50.004;8.006;2023-03-04T00:40:53;101444.69;;;-0.56;100.00
24230;BME280;12362;50.004;8.006;2023-03-04T00:43:19;101442.66;;;-0.81;100.00
24230;BME280;12362;50.004;8.006;2023-03-04T00:45:45;101435.91;;;-0.79;100.00
24230;BME280;12362;50.004;8.006;2023-03-04T00:48:13;101442.88;;;-0.66;100.00
24230;BME280;12362;50.004;8.006;2023-03-04T00:50:39;101436.22;;;-0.53;100.00
24230;BME280;12362;50.004;8.006;2023-03-04T00:53:05;101442.56;;;-0.88;100.00
24230;BME280;12362;50.004;8.006;2023-03-04T00:55:30;101440.22;;;-0.73;100.00
24230;BME280;12362;50.004;8.006;2023-03-04T00:57:56;101427.78;;;-0.51;100.00
24230;BME280;12362;50.004;8.006;2023-03-04T01:00:22;101428.72;;;-0.44;100.00
24230;BME280;12362;50.004;8.006;2023-03-04T01:02:50;101434.91;;;-0.88;100.00
24230;BME280;12362;50.004;8.006;2023-03-04T01:05:16;101428.03;;;-0.93;100.00
24230;BME280;12362;50.004;8.006;2023-03-04T01:07:42;101418.31;;;-0.59;100.00
24230;BME280;12362;50.004;8.006;2023-03-04T01:10:10;101426.75;;;-0.65;100.00
24230;BME280;12362;50.004;8.006;2023-03-04T01:12:37;101436.47;;;-1.00;100.00
24230;BME280;12362;50.004;8.006;2023-03-04T01:15:05;101423.63;;;-1.06;100.00
24230;BME280;12362;50.004;8.006;2023-03-04T01:17:31;101425.50;;;-0.95;100.00
24230;BME280;12362;50.004;8.006;2023-03-04T01:19:57;101427.38;;;-0.84;100.00
24230;BME280;12362;50.004;8.006;2023-03-04T01:22:22;101421.06;;;-1.08;100.00
24230;BME280;12362;50.004;8.006;2023-03-04T01:24:48;101423.63;;;-1.06;100.00
24230;BME280;12362;50.004;8.006;2023-03-04T01:27:13;101423.78;;;-0.94;100.00
24230;BME280;12362;50.004;8.006;2023-03-04T01:29:39;101412.06;;;-0.82;100.00
24230;BME280;12362;50.004;8.006;2023-03-04T01:32:05;101413.59;;;-0.94;100.00
24230;BME280;12362;50.004;8.006;2023-03-04T01:34:31;101418.38;;;-1.17;100.00
24230;BME280;12362;50.004;8.006;2023-03-04T01:36:56;101414.19;;;-1.12;100.00
24230;BME280;12362;50.004;8.006;2023-03-04T01:39:22;101410.16;;;-0.98;100.00
24230;BME280;12362;50.004;8.006;2023-03-04T01:41:50;101405.81;;;-1.05;100.00
24230;BME280;12362;50.004;8.006;2023-03-04T01:44:15;101392.66;;;-0.73;100.00
24230;BME280;12362;50.004;8.006;2023-03-04T01:46:46;101394.88;;;-0.98;100.00
24230;BME280;12362;50.004;8.006;2023-03-04T01:49:13;101391.69;;;-0.84;100.00
24230;BME280;12362;50.004;8.006;2023-03-04T01:51:42;101391.38;;;-1.07;100.00
24230;BME280;12362;50.004;8.006;2023-03-04T01:54:08;101385.81;;;-0.78;100.00
24230;BME280;12362;50.004;8.006;2023-03-04T01:56:38;101374.00;;;-0.70;100.00
24230;BME280;12362;50.004;8.006;2023-03-04T02:01:38;101376.31;;;-0.90;100.00
24230;BME280;12362;50.004;8.006;2023-03-04T02:04:04;101374.59;;;-0.91;100.00
24230;BME280;12362;50.004;8.006;2023-03-04T02:06:33;101383.16;;;-0.86;100.00
24230;BME280;12362;50.004;8.006;2023-03-04T02:08:59;101381.25;;;-1.00;100.00
24230;BME280;12362;50.004;8.006;2023-03-04T02:11:25;101376.94;;;-1.05;100.00
24230;BME280;12362;50.004;8.006;2023-03-04T02:13:54;101374.69;;;-0.85;100.00
24230;BME280;12362;50.004;8.006;2023-03-04T02:16:19;101365.22;;;-0.92;100.00
24230;BME280;12362;50.004;8.006;2023-03-04T02:18:45;101376.34;;;-0.87;100.00
24230;BME280;12362;50.004;8.006;2023-03-04T02:21:25;101367.91;;;-0.81;100.00
24230;BME280;12362;50.004;8.006;2023-03-04T02:24:12;101365.28;;;-0.89;100.00
24230;BME280;12362;50.004;8.006;2023-03-04T02:26:40;101369.28;;;-1.07;100.00
24230;BME280;12362;50.004;8.006;2023-03-04T02:29:11;101366.72;;;-1.07;100.00
24230;BME280;12362;50.004;8.006;2023-03-04T02:31:39;101365.88;;;-1.07;100.00
24230;BME280;12362;50.004;8.006;2023-03-04T02:34:12;101368.00;;;-1.37;100.00
24230;BME280;12362;50.004;8.006;2023-03-04T02:36:42;101369.81;;;-1.30;100.00
24230;BME280;12362;50.004;8.006;2023-03-04T02:39:24;101365.66;;;-1.22;100.00
24230;BME280;12362;50.004;8.006;2023-03-04T02:41:53;101349.63;;;-1.15;100.00
24230;BME280;12362;50.004;8.006;2023-03-04T02:44:30;101358.97;;;-1.16;100.00
24230;BME280;12362;50.004;8.006;2023-03-04T02:46:57;101356.84;;;-0.85;100.00
24230;BME280;12362;50.004;8.006;2023-03-04T02:49:26;101352.91;;;-1.24;100.00
24230;BME280;12362;50.004;8.006;2023-03-04T02:52:00;101354.09;;;-1.01;100.00
24230;BME280;12362;50.004;8.006;2023-03-04T02:54:27;101347.38;;;-0.93;100.00
24230;BME280;12362;50.004;8.006;2023-03-04T02:56:58;101356.81;;;-0.86;100.00
24230;BME280;12362;50.004;8.006;2023-03-04T02:59:26;101347.50;;;-0.83;100.00
24230;BME280;12362;50.004;8.006;2023-03-04T03:01:52;101344.25;;;-0.71;100.00
24230;BME280;12362;50.004;8.006;2023-03-04T03:04:20;101340.81;;;-0.75;100.00
24230;BME280;12362;50.004;8.006;2023-03-04T03:06:49;101346.84;;;-0.67;100.00
24230;BME280;12362;50.004;8.006;2023-03-04T03:09:15;101346.69;;;-0.79;100.00
24230;BME280;12362;50.004;8.006;2023-03-04T03:11:41;101342.53;;;-0.72;100.00
24230;BME280;12362;50.004;8.006;2023-03-04T03:14:07;101347.91;;;-0.48;100.00
24230;BME280;12362;50.004;8.006;2023-03-04T03:16:33;101340.38;;;-0.38;100.00
24230;BME280;12362;50.004;8.006;2023-03-04T03:18:59;101343.53;;;-0.58;100.00
24230;BME280;12362;50.004;8.006;2023-03-04T03:21:25;101339.16;;;-0.70;100.00
24230;BME280;12362;50.004;8.006;2023-03-04T03:23:51;101340.13;;;-0.60;100.00
24230;BME280;12362;50.004;8.006;2023-03-04T03:26:20;101334.09;;;-0.67;100.00
24230;BME280;12362;50.004;8.006;2023-03-04T03:28:46;101338.38;;;-0.64;100.00
24230;BME280;12362;50.004;8.006;2023-03-04T03:31:12;101333.47;;;-0.46;100.00
24230;BME280;12362;50.004;8.006;2023-03-04T03:33:37;101344.50;;;-0.46;100.00
24230;BME280;12362;50.004;8.006;2023-03-04T03:36:04;101348.81;;;-0.42;100.00
24230;BME280;12362;50.004;8.006;2023-03-04T03:38:31;101336.19;;;-0.28;100.00
24230;BME280;12362;50.004;8.006;2023-03-04T03:40:57;101343.94;;;-0.19;100.00
24230;BME280;12362;50.004;8.006;2023-03-04T03:43:22;101339.63;;;-0.28;100.00
24230;BME280;12362;50.004;8.006;2023-03-04T03:45:48;101332.88;;;-0.21;100.00
24230;BME280;12362;50.004;8.006;2023-03-04T03:48:17;101333.03;;;-0.06;100.00
24230;BME280;12362;50.004;8.006;2023-03-04T03:50:43;101329.03;;;0.31;100.00
24230;BME280;12362;50.004;8.006;2023-03-04T03:53:10;101328.41;;;0.64;100.00
24230;BME280;12362;50.004;8.006;2023-03-04T03:55:35;101325.00;;;0.62;100.00
24230;BME280;12362;50.004;8.006;2023-03-04T03:58:01;101320.00;;;0.81;100.00
24230;BME280;12362;50.004;8.006;2023-03-04T04:00:26;101320.91;;;0.96;100.00
24230;BME280;12362;50.004;8.006;2023-03-04T04:02:53;101320.13;;;1.06;100.00
24230;BME280;12362;50.004;8.006;2023-03-04T04:05:20;101308.19;;;1.08;100.00
24230;BME280;12362;50.004;8.006;2023-03-04T04:07:48;101310.78;;;1.10;100.00
24230;BME280;12362;50.004;8.006;2023-03-04T04:10:14;101315.91;;;1.17;100.00
24230;BME280;12362;50.004;8.006;2023-03-04T04:12:39;101312.50;;;1.18;100.00
24230;BME280;12362;50.004;8.006;2023-03-04T04:15:05;101308.25;;;1.17;100.00
24230;BME280;12362;50.004;8.006;2023-03-04T04:17:31;101314.22;;;1.22;100.00
24230;BME280;12362;50.004;8.006;2023-03-04T04:19:57;101318.50;;;1.37;100.00
24230;BME280;12362;50.004;8.006;2023-03-04T04:22:23;101317.66;;;1.33;100.00
24230;BME280;12362;50.004;8.006;2023-03-04T04:24:48;101319.41;;;1.40;100.00
24230;BME280;12362;50.004;8.006;2023-03-04T04:27:14;101314.28;;;1.46;100.00
24230;BME280;12362;50.004;8.006;2023-03-04T04:29:40;101322.81;;;1.54;100.00
24230;BME280;12362;50.004;8.006;2023-03-04T04:32:06;101315.97;;;1.49;100.00
24230;BME280;12362;50.004;8.006;2023-03-04T04:34:33;101321.13;;;1.53;100.00
24230;BME280;12362;50.004;8.006;2023-03-04T04:36:59;101319.44;;;1.63;100.00
24230;BME280;12362;50.004;8.006;2023-03-04T04:39:25;101320.31;;;1.77;100.00
24230;BME280;12362;50.004;8.006;2023-03-04T04:41:50;101322.03;;;1.80;100.00
24230;BME280;12362;50.004;8.006;2023-03-04T04:44:16;101322.88;;;1.77;100.00
24230;BME280;12362;50.004;8.006;2023-03-04T04:46:45;101322.88;;;1.84;100.00
24230;BME280;12362;50.004;8.006;2023-03-04T04:49:10;101324.59;;;2.03;100.00
24230;BME280;12362;50.004;8.006;2023-03-04T04:51:37;101310.94;;;1.92;100.00
24230;BME280;12362;50.004;8.006;2023-03-04T04:54:03;101311.78;;;1.79;100.00
24230;BME280;12362;50.004;8.006;2023-03-04T04:56:30;101310.91;;;1.71;100.00
24230;BME280;12362;50.004;8.006;2023-03-04T04:58:57;101314.34;;;1.69;100.00
24230;BME280;12362;50.004;8.006;2023-03-04T05:01:23;101320.31;;;1.72;100.00
24230;BME280;12362;50.004;8.006;2023-03-04T05:03:49;101315.19;;;1.71;100.00
24230;BME280;12362;50.004;8.006;2023-03-04T05:06:18;101307.47;;;1.66;100.00
24230;BME280;12362;50.004;8.006;2023-03-04T05:08:44;101314.31;;;1.52;100.00
24230;BME280;12362;50.004;8.006;2023-03-04T05:11:09;101311.72;;;1.49;100.00
24230;BME280;12362;50.004;8.006;2023-03-04T05:13:35;101313.44;;;1.61;100.00
24230;BME280;12362;50.004;8.006;2023-03-04T05:16:01;101311.75;;;1.58;100.00
24230;BME280;12362;50.004;8.006;2023-03-04T05:18:27;101306.66;;;1.61;100.00
24230;BME280;12362;50.004;8.006;2023-03-04T05:20:55;101311.75;;;1.70;100.00
24230;BME280;12362;50.004;8.006;2023-03-04T05:23:21;101309.19;;;1.66;100.00
24230;BME280;12362;50.004;8.006;2023-03-04T05:25:47;101298.09;;;1.68;100.00
24230;BME280;12362;50.004;8.006;2023-03-04T05:28:13;101298.13;;;1.74;100.00
24230;BME280;12362;50.004;8.006;2023-03-04T05:30:40;101303.25;;;1.76;100.00
24230;BME280;12362;50.004;8.006;2023-03-04T05:33:07;101301.53;;;1.75;100.00
24230;BME280;12362;50.004;8.006;2023-03-04T05:35:37;101304.94;;;1.68;100.00
24230;BME280;12362;50.004;8.006;2023-03-04T05:38:05;101309.19;;;1.67;100.00
24230;BME280;12362;50.004;8.006;2023-03-04T05:40:31;101301.53;;;1.69;100.00
24230;BME280;12362;50.004;8.006;2023-03-04T05:42:57;101306.66;;;1.72;100.00
24230;BME280;12362;50.004;8.006;2023-03-04T05:45:24;101315.19;;;1.78;100.00
24230;BME280;12362;50.004;8.006;2023-03-04T05:47:50;101310.91;;;1.76;100.00
24230;BME280;12362;50.004;8.006;2023-03-04T05:50:16;101321.19;;;1.81;100.00
24230;BME280;12362;50.004;8.006;2023-03-04T05:52:41;101313.50;;;1.83;100.00
24230;BME280;12362;50.004;8.006;2023-03-04T05:55:07;101312.66;;;1.87;100.00
24230;BME280;12362;50.004;8.006;2023-03-04T05:57:33;101306.69;;;2.04;100.00
24230;BME280;12362;50.004;8.006;2023-03-04T05:59:58;101299.78;;;2.53;100.00
24230;BME280;12362;50.004;8.006;2023-03-04T06:02:24;101312.66;;;2.27;100.00
24230;BME280;12362;50.004;8.006;2023-03-04T06:04:49;101314.34;;;2.25;100.00
24230;BME280;12362;50.004;8.006;2023-03-04T06:07:15;101313.50;;;2.23;100.00
24230;BME280;12362;50.004;8.006;2023-03-04T06:09:41;101315.22;;;2.20;100.00
24230;BME280;12362;50.004;8.006;2023-03-04T06:12:10;101316.06;;;2.16;100.00
24230;BME280;12362;50.004;8.006;2023-03-04T06:14:36;101311.78;;;2.19;100.00
24230;BME280;12362;50.004;8.006;2023-03-04T06:17:01;101321.19;;;2.23;100.00
24230;BME280;12362;50.004;8.006;2023-03-04T06:19:27;101322.91;;;2.27;100.00
24230;BME280;12362;50.004;8.006;2023-03-04T06:21:52;101331.44;;;2.25;100.00
24230;BME280;12362;50.004;8.006;2023-03-04T06:24:18;101320.31;;;2.14;100.00
24230;BME280;12362;50.004;8.006;2023-03-04T06:26:44;101323.75;;;2.16;100.00
24230;BME280;12362;50.004;8.006;2023-03-04T06:29:09;101326.31;;;2.14;100.00
24230;BME280;12362;50.004;8.006;2023-03-04T06:31:35;101326.31;;;2.22;100.00
24230;BME280;12362;50.004;8.006;2023-03-04T06:34:01;101328.00;;;2.27;100.00
24230;BME280;12362;50.004;8.006;2023-03-04T06:36:26;101334.00;;;2.37;100.00
24230;BME280;12362;50.004;8.006;2023-03-04T06:38:52;101328.00;;;2.39;100.00
24230;BME280;12362;50.004;8.006;2023-03-04T06:41:18;101338.22;;;2.45;100.00
24230;BME280;12362;50.004;8.006;2023-03-04T06:43:45;101343.38;;;2.47;100.00
24230;BME280;12362;50.004;8.006;2023-03-04T06:46:15;101342.50;;;2.52;100.00
24230;BME280;12362;50.004;8.006;2023-03-04T06:48:44;101339.94;;;2.52;100.00
24230;BME280;12362;50.004;8.006;2023-03-04T06:51:10;101343.34;;;2.65;100.00
24230;BME280;12362;50.004;8.006;2023-03-04T06:53:37;101349.31;;;2.62;100.00
24230;BME280;12362;50.004;8.006;2023-03-04T06:56:03;101346.75;;;2.74;100.00
24230;BME280;12362;50.004;8.006;2023-03-04T06:58:34;101351.84;;;2.86;100.00
24230;BME280;12362;50.004;8.006;2023-03-04T07:01:16;101348.41;;;2.94;100.00
24230;BME280;12362;50.004;8.006;2023-03-04T07:03:43;101345.00;;;2.88;100.00
24230;BME280;12362;50.004;8.006;2023-03-04T07:06:10;101349.25;;;2.98;100.00
24230;BME280;12362;50.004;8.006;2023-03-04T07:08:38;101347.53;;;3.00;100.00
24230;BME280;12362;50.004;8.006;2023-03-04T07:11:06;101353.47;;;3.09;100.00
24230;BME280;12362;50.004;8.006;2023-03-04T07:13:31;101357.72;;;3.19;100.00
24230;BME280;12362;50.004;8.006;2023-03-04T07:16:00;101356.88;;;3.17;100.00
24230;BME280;12362;50.004;8.006;2023-03-04T07:18:26;101359.41;;;3.22;100.00
24230;BME280;12362;50.004;8.006;2023-03-04T07:20:52;101358.50;;;3.33;100.00
24230;BME280;12362;50.004;8.006;2023-03-04T07:23:18;101364.47;;;3.41;100.00
24230;BME280;12362;50.004;8.006;2023-03-04T07:25:44;101366.13;;;3.48;100.00
24230;BME280;12362;50.004;8.006;2023-03-04T07:28:10;101364.38;;;3.59;100.00
24230;BME280;12362;50.004;8.006;2023-03-04T07:30:36;101364.38;;;3.59;100.00
24230;BME280;12362;50.004;8.006;2023-03-04T07:33:01;101366.00;;;3.69;100.00
24230;BME280;12362;50.004;8.006;2023-03-04T07:35:36;101368.56;;;3.73;100.00
24230;BME280;12362;50.004;8.006;2023-03-04T07:38:06;101360.78;;;3.85;100.00
24230;BME280;12362;50.004;8.006;2023-03-04T07:40:31;101366.75;;;3.90;100.00
24230;BME280;12362;50.004;8.006;2023-03-04T07:42:57;101363.25;;;4.02;100.00
24230;BME280;12362;50.004;8.006;2023-03-04T07:45:25;101364.91;;;4.09;100.00
24230;BME280;12362;50.004;8.006;2023-03-04T07:47:51;101358.84;;;4.19;100.00
24230;BME280;12362;50.004;8.006;2023-03-04T07:50:17;101360.53;;;4.23;100.00
24230;BME280;12362;50.004;8.006;2023-03-04T07:52:54;101368.25;;;4.17;100.00
24230;BME280;12362;50.004;8.006;2023-03-04T07:55:19;101369.06;;;4.23;100.00
24230;BME280;12362;50.004;8.006;2023-03-04T07:57:46;101363.91;;;4.26;100.00
24230;BME280;12362;50.004;8.006;2023-03-04T08:00:13;101364.66;;;4.40;100.00
24230;BME280;12362;50.004;8.006;2023-03-04T08:02:39;101368.88;;;4.48;100.00
24230;BME280;12362;50.004;8.006;2023-03-04T08:05:17;101361.13;;;4.53;100.00
24230;BME280;12362;50.004;8.006;2023-03-04T08:07:43;101367.19;;;4.45;100.00
24230;BME280;12362;50.004;8.006;2023-03-04T08:10:09;101373.16;;;4.48;100.00
24230;BME280;12362;50.004;8.006;2023-03-04T08:12:38;101365.47;;;4.44;100.00
24230;BME280;12362;50.004;8.006;2023-03-04T08:15:04;101367.94;;;4.58;100.00
24230;BME280;12362;50.004;8.006;2023-03-04T08:17:30;101368.66;;;4.72;100.00
24230;BME280;12362;50.004;8.006;2023-03-04T08:19:56;101372.03;;;4.77;100.00
24230;BME280;12362;50.004;8.006;2023-03-04T08:22:38;101371.13;;;4.80;100.00
24230;BME280;12362;50.004;8.006;2023-03-04T08:25:04;101368.53;;;4.84;100.00
24230;BME280;12362;50.004;8.006;2023-03-04T08:27:33;101367.78;;;4.72;100.00
24230;BME280;12362;50.004;8.006;2023-03-04T08:30:02;101371.91;;;4.86;100.00
24230;BME280;12362;50.004;8.006;2023-03-04T08:32:39;101375.28;;;4.94;100.00
24230;BME280;12362;50.004;8.006;2023-03-04T08:35:29;101377.00;;;4.95;100.00
24230;BME280;12362;50.004;8.006;2023-03-04T08:38:14;101369.34;;;4.86;100.00
24230;BME280;12362;50.004;8.006;2023-03-04T08:40:53;101376.13;;;4.96;100.00
24230;BME280;12362;50.004;8.006;2023-03-04T08:43:40;101377.84;;;4.94;100.00
24230;BME280;12362;50.004;8.006;2023-03-04T08:46:22;101379.66;;;4.85;100.00
24230;BME280;12362;50.004;8.006;2023-03-04T08:51:38;101380.28;;;5.09;100.00
24230;BME280;12362;50.004;8.006;2023-03-04T08:54:44;101369.88;;;5.18;100.00
24230;BME280;12362;50.004;8.006;2023-03-04T08:57:51;101375.00;;;5.17;100.00
24230;BME280;12362;50.004;8.006;2023-03-04T09:00:22;101372.31;;;5.29;100.00
24230;BME280;12362;50.004;8.006;2023-03-04T09:03:13;101371.22;;;5.46;100.00
24230;BME280;12362;50.004;8.006;2023-03-04T09:05:43;101377.16;;;5.54;100.00
24230;BME280;12362;50.004;8.006;2023-03-04T09:08:19;101378.84;;;5.55;100.00
24230;BME280;12362;50.004;8.006;2023-03-04T09:10:52;101378.16;;;5.41;100.00
24230;BME280;12362;50.004;8.006;2023-03-04T09:13:28;101362.06;;;5.24;100.00
24230;BME280;12362;50.004;8.006;2023-03-04T09:16:29;101373.09;;;5.37;100.00
24230;BME280;12362;50.004;8.006;2023-03-04T09:23:22;101379.22;;;5.25;100.00
24230;BME280;12362;50.004;8.006;2023-03-04T09:26:27;101374.66;;;5.46;100.00
24230;BME280;12362;50.004;8.006;2023-03-04T09:29:27;101377.16;;;5.52;100.00
24230;BME280;12362;50.004;8.006;2023-03-04T09:32:18;101383.84;;;5.67;100.00
24230;BME280;12362;50.004;8.006;2023-03-04T09:35:12;101382.88;;;5.77;100.00
24230;BME280;12362;50.004;8.006;2023-03-04T09:37:52;101379.56;;;5.66;100.00
24230;BME280;12362;50.004;8.006;2023-03-04T09:40:36;101382.91;;;5.72;100.00
24230;BME280;12362;50.004;8.006;2023-03-04T09:46:45;101374.25;;;5.76;100.00
24230;BME280;12362;50.004;8.006;2023-03-04T09:49:43;101379.31;;;5.87;100.00
24230;BME280;12362;50.004;8.006;2023-03-04T09:52:58;101375.78;;;5.92;100.00
24230;BME280;12362;50.004;8.006;2023-03-04T09:55:53;101370.53;;;6.00;100.00
24230;BME280;12362;50.004;8.006;2023-03-04T09:59:05;101380.09;;;5.90;100.00
24230;BME280;12362;50.004;8.006;2023-03-04T10:01:58;101373.38;;;5.80;100.00
24230;BME280;12362;50.004;8.006;2023-03-04T10:04:51;101376.69;;;5.90;100.00
24230;BME280;12362;50.004;8.006;2023-03-04T10:07:39;101367.97;;;5.97;100.00
24230;BME280;12362;50.004;8.006;2023-03-04T10:23:18;101361.13;;;5.97;100.00
24230;BME280;12362;50.004;8.006;2023-03-04T10:26:19;101363.50;;;6.08;100.00
24230;BME280;12362;50.004;8.006;2023-03-04T10:28:49;101364.28;;;6.16;100.00
24230;BME280;12362;50.004;8.006;2023-03-04T10:31:39;101356.72;;;6.02;100.00
24230;BME280;12362;50.004;8.006;2023-03-04T10:34:10;101360.06;;;6.09;100.00
24230;BME280;12362;50.004;8.006;2023-03-04T10:37:04;101353.13;;;6.14;100.00
24230;BME280;12362;50.004;8.006;2023-03-04T10:39:48;101357.44;;;6.10;100.00
24230;BME280;12362;50.004;8.006;2023-03-04T10:44:54;101361.47;;;6.29;100.00
24230;BME280;12362;50.004;8.006;2023-03-04T10:47:25;101359.84;;;6.24;100.00
24230;BME280;12362;50.004;8.006;2023-03-04T10:50:05;101352.44;;;6.03;100.00
24230;BME280;12362;50.004;8.006;2023-03-04T10:52:51;101353.31;;;6.02;100.00
24230;BME280;12362;50.004;8.006;2023-03-04T10:55:42;101347.31;;;6.00;100.00
24230;BME280;12362;50.004;8.006;2023-03-04T10:58:17;101354.00;;;6.11;100.00
24230;BME280;12362;50.004;8.006;2023-03-04T11:01:14;101339.88;;;6.34;100.00
24230;BME280;12362;50.004;8.006;2023-03-04T11:03:56;101331.31;;;6.32;100.00
24230;BME280;12362;50.004;8.006;2023-03-04T11:06:27;101329.59;;;6.31;100.00
24230;BME280;12362;50.004;8.006;2023-03-04T11:09:05;101338.53;;;6.13;100.00
24230;BME280;12362;50.004;8.006;2023-03-04T11:11:52;101341.78;;;6.22;100.00
24230;BME280;12362;50.004;8.006;2023-03-04T11:14:35;101334.69;;;6.37;100.00
24230;BME280;12362;50.004;8.006;2023-03-04T11:23:58;101334.00;;;6.27;100.00
24230;BME280;12362;50.004;8.006;2023-03-04T11:26:03;101332.31;;;6.26;100.00
24230;BME280;12362;50.004;8.006;2023-03-04T11:41:52;101322.88;;;6.25;100.00
24230;BME280;12362;50.004;8.006;2023-03-04T11:44:29;101318.63;;;6.21;100.00
24230;BME280;12362;50.004;8.006;2023-03-04T11:46:58;101319.53;;;6.18;100.00
24230;BME280;12362;50.004;8.006;2023-03-04T11:56:20;101302.00;;;6.38;100.00
24230;BME280;12362;50.004;8.006;2023-03-04T11:59:05;101300.28;;;6.38;100.00
24230;BME280;12362;50.004;8.006;2023-03-04T12:02:07;101300.63;;;6.19;100.00
24230;BME280;12362;50.004;8.006;2023-03-04T12:15:45;101275.34;;;6.83;100.00
24230;BME280;12362;50.004;8.006;2023-03-04T12:18:54;101269.16;;;6.47;100.00
24230;BME280;12362;50.004;8.006;2023-03-04T12:35:41;101240.69;;;7.70;100.00
24230;BME280;12362;50.004;8.006;2023-03-04T12:54:50;101222.91;;;7.93;100.00
24230;BME280;12362;50.004;8.006;2023-03-04T12:57:56;101216.41;;;7.77;100.00
24230;BME280;12362;50.004;8.006;2023-03-04T13:07:45;101207.81;;;8.09;100.00
24230;BME280;12362;50.004;8.006;2023-03-04T13:54:26;101165.94;;;8.29;100.00
24230;BME280;12362;50.004;8.006;2023-03-04T14:02:24;101162.63;;;7.91;100.00
24230;BME280;12362;50.004;8.006;2023-03-04T14:09:19;101157.97;;;8.03;100.00
24230;BME280;12362;50.004;8.006;2023-03-04T14:19:58;101147.50;;;7.76;100.00
24230;BME280;12362;50.004;8.006;2023-03-04T14:56:42;101114.09;;;8.00;100.00
24230;BME280;12362;50.004;8.006;2023-03-04T14:59:43;101101.28;;;7.96;100.00
24230;BME280;12362;50.004;8.006;2023-03-04T15:29:16;101094.88;;;7.78;100.00
24230;BME280;12362;50.004;8.006;2023-03-04T16:40:37;101075.16;;;7.42;100.00
24230;BME280;12362;50.004;8.006;2023-03-04T17:32:19;101088.13;;;7.06;100.00
24230;BME280;12362;50.004;8.006;2023-03-04T17:35:24;101096.22;;;6.91;100.00
24230;BME280;12362;50.004;8.006;2023-03-04T17:38:22;101090.97;;;6.94;100.00
24230;BME280;12362;50.004;8.006;2023-03-04T17:41:11;101092.56;;;7.00;100.00
24230;BME280;12362;50.004;8.006;2023-03-04T17:44:12;101090.03;;;6.98;100.00
24230;BME280;12362;50.004;8.006;2023-03-04T17:47:12;101088.41;;;6.94;100.00
24230;BME280;12362;50.004;8.006;2023-03-04T17:49:55;101090.03;;;6.98;100.00
24230;BME280;12362;50.004;8.006;2023-03-04T18:34:09;101069.75;;;6.82;100.00
24230;BME280;12362;50.004;8.006;2023-03-04T18:41:12;101073.97;;;6.86;100.00
24230;BME280;12362;50.004;8.006;2023-03-04T18:43:49;101068.88;;;6.83;100.00
24230;BME280;12362;50.004;8.006;2023-03-04T18:46:38;101066.16;;;6.89;100.00
24230;BME280;12362;50.004;8.006;2023-03-04T18:49:07;101070.41;;;6.91;100.00
24230;BME280;12362;50.004;8.006;2023-03-04T18:51:35;101076.50;;;6.89;100.00
24230;BME280;12362;50.004;8.006;2023-03-04T18:54:03;101079.88;;;6.91;100.00
24230;BME280;12362;50.004;8.006;2023-03-04T18:56:41;101073.91;;;6.89;100.00
24230;BME280;12362;50.004;8.006;2023-03-04T19:01:42;101071.28;;;6.90;100.00
24230;BME280;12362;50.004;8.006;2023-03-04T19:24:09;101078.41;;;6.79;100.00
24230;BME280;12362;50.004;8.006;2023-03-04T19:27:01;101075.78;;;6.82;100.00
24230;BME280;12362;50.004;8.006;2023-03-04T19:29:34;101080.13;;;6.80;100.00
24230;BME280;12362;50.004;8.006;2023-03-04T19:32:26;101070.63;;;6.82;100.00
24230;BME280;12362;50.004;8.006;2023-03-04T19:35:43;101076.66;;;6.81;100.00
24230;BME280;12362;50.004;8.006;2023-03-04T19:41:45;101082.81;;;6.76;100.00
24230;BME280;12362;50.004;8.006;2023-03-04T19:44:42;101077.75;;;6.71;100.00
24230;BME280;12362;50.004;8.006;2023-03-04T19:47:36;101079.47;;;6.71;100.00
24230;BME280;12362;50.004;8.006;2023-03-04T19:50:35;101073.53;;;6.69;100.00
24230;BME280;12362;50.004;8.006;2023-03-04T19:53:28;101075.19;;;6.70;100.00
24230;BME280;12362;50.004;8.006;2023-03-04T19:56:02;101074.28;;;6.72;100.00
24230;BME280;12362;50.004;8.006;2023-03-04T19:58:54;101076.00;;;6.73;100.00
24230;BME280;12362;50.004;8.006;2023-03-04T20:01:43;101078.69;;;6.67;100.00
24230;BME280;12362;50.004;8.006;2023-03-04T20:04:12;101078.84;;;6.60;100.00
24230;BME280;12362;50.004;8.006;2023-03-04T20:06:40;101080.59;;;6.59;100.00
24230;BME280;12362;50.004;8.006;2023-03-04T20:09:07;101078.03;;;6.59;100.00
24230;BME280;12362;50.004;8.006;2023-03-04T20:11:33;101072.81;;;6.61;100.00
24230;BME280;12362;50.004;8.006;2023-03-04T20:13:59;101076.38;;;6.55;100.00